Time;durP1;ratioP1;P1;durP2;ratioP2;P2;SDS_P1;SDS_P2;PMS_P1;PMS_P2;Temp;Humidity;BMP_temperature;BMP_pressure;BME280_temperature;BME280_humidity;BME280_pressure;Samples;Min_cycle;Max_cycle;Signal;HPM_P1;HPM_P2
2022/06/19 00:01:04;;;;;;;7.28;2.40;;;;;;;;;;5069923;28;20029;-78
2022/06/19 00:03:35;;;;;;;4.25;2.72;;;;;;;;;;5058718;28;20047;-78
2022/06/19 00:06:02;;;;;;;9.43;2.28;;;;;;;;;;5061959;28;20017;-77
2022/06/19 00:08:29;;;;;;;8.52;2.83;;;;;;;;;;5063422;28;20031;-78
2022/06/19 00:10:55;;;;;;;5.63;2.35;;;;;;;;;;5061388;28;20028;-78
2022/06/19 00:13:21;;;;;;;6.50;2.47;;;;;;;;;;5060548;28;20109;-78
2022/06/19 00:15:47;;;;;;;7.80;2.38;;;;;;;;;;5063971;28;20027;-77
2022/06/19 00:18:14;;;;;;;7.80;2.92;;;;;;;;;;5062258;28;20056;-78
2022/06/19 00:20:40;;;;;;;2.90;2.08;;;;;;;;;;5059904;28;20032;-77
2022/06/19 00:23:06;;;;;;;4.80;2.42;;;;;;;;;;5065746;28;20023;-77
2022/06/19 00:25:34;;;;;;;4.15;2.03;;;;;;;;;;5061500;28;20017;-77
2022/06/19 00:28:00;;;;;;;9.77;4.40;;;;;;;;;;5066577;28;20478;-78
2022/06/19 00:30:26;;;;;;;10.70;2.72;;;;;;;;;;5062528;28;20021;-78
2022/06/19 00:32:52;;;;;;;6.15;2.45;;;;;;;;;;5060196;28;20104;-78
2022/06/19 00:35:18;;;;;;;9.40;3.63;;;;;;;;;;5061851;28;20041;-78
2022/06/19 00:37:46;;;;;;;7.43;2.53;;;;;;;;;;5068826;28;20558;-78
2022/06/19 00:40:12;;;;;;;5.25;2.78;;;;;;;;;;5059607;28;20033;-78
2022/06/19 00:42:38;;;;;;;7.60;2.90;;;;;;;;;;5070300;28;20028;-78
2022/06/19 00:45:05;;;;;;;6.78;2.65;;;;;;;;;;5056186;28;20012;-78
2022/06/19 00:47:38;;;;;;;5.53;2.72;;;;;;;;;;5061445;28;20101;-77
2022/06/19 00:50:24;;;;;;;7.82;3.15;;;;;;;;;;5059178;28;20019;-78
2022/06/19 00:52:51;;;;;;;8.80;2.53;;;;;;;;;;5065644;28;20359;-79
2022/06/19 00:55:21;;;;;;;7.65;2.83;;;;;;;;;;5070482;28;20043;-78
2022/06/19 00:57:50;;;;;;;8.48;2.65;;;;;;;;;;5062772;28;20156;-77
2022/06/19 01:00:16;;;;;;;5.70;2.35;;;;;;;;;;5062307;28;20240;-78
2022/06/19 01:02:44;;;;;;;8.30;2.22;;;;;;;;;;5064555;28;20021;-78
2022/06/19 01:05:15;;;;;;;7.53;3.13;;;;;;;;;;5065700;28;20087;-78
2022/06/19 01:07:41;;;;;;;6.20;2.80;;;;;;;;;;5061096;28;20025;-78
2022/06/19 01:10:08;;;;;;;8.60;3.15;;;;;;;;;;5066610;28;20021;-78
2022/06/19 01:12:34;;;;;;;5.78;2.53;;;;;;;;;;5060630;28;20107;-78
2022/06/19 01:15:02;;;;;;;7.15;2.80;;;;;;;;;;5063253;28;20028;-77
2022/06/19 01:17:29;;;;;;;4.45;2.20;;;;;;;;;;5053909;28;20502;-78
2022/06/19 01:19:55;;;;;;;6.35;2.60;;;;;;;;;;5057004;28;20387;-78
2022/06/19 01:22:30;;;;;;;8.15;2.78;;;;;;;;;;5063211;28;20054;-78
2022/06/19 01:25:17;;;;;;;6.72;2.22;;;;;;;;;;5067337;28;20029;-78
2022/06/19 01:30:34;;;;;;;6.60;2.70;;;;;;;;;;5065291;28;20048;-78
2022/06/19 01:33:02;;;;;;;7.22;2.55;;;;;;;;;;5064745;28;20025;-78
2022/06/19 01:35:30;;;;;;;8.93;2.80;;;;;;;;;;5068529;28;20033;-78
2022/06/19 01:37:57;;;;;;;6.28;2.35;;;;;;;;;;5063639;28;20029;-77
2022/06/19 01:40:24;;;;;;;5.68;2.53;;;;;;;;;;5058533;28;20040;-78
2022/06/19 01:42:51;;;;;;;7.28;2.25;;;;;;;;;;5059654;28;20128;-78
2022/06/19 01:45:17;;;;;;;5.57;2.40;;;;;;;;;;5055912;28;20049;-78
2022/06/19 01:47:44;;;;;;;9.45;3.03;;;;;;;;;;5063948;28;20103;-78
2022/06/19 01:50:12;;;;;;;7.95;2.67;;;;;;;;;;5056464;28;20025;-78
2022/06/19 01:52:38;;;;;;;4.22;2.67;;;;;;;;;;5065475;28;20043;-78
2022/06/19 01:55:12;;;;;;;8.13;3.58;;;;;;;;;;5069896;28;20046;-78
2022/06/19 01:57:41;;;;;;;5.50;2.58;;;;;;;;;;5063117;28;20159;-77
2022/06/19 02:00:09;;;;;;;4.93;2.47;;;;;;;;;;5069345;28;20043;-77
2022/06/19 02:02:36;;;;;;;5.88;2.40;;;;;;;;;;5070042;28;20309;-78
2022/06/19 02:05:02;;;;;;;9.25;2.80;;;;;;;;;;5071330;28;20027;-77
2022/06/19 02:07:28;;;;;;;8.05;2.40;;;;;;;;;;5069639;28;20263;-78
2022/06/19 02:09:55;;;;;;;7.57;2.50;;;;;;;;;;5063785;28;20124;-77
2022/06/19 02:12:22;;;;;;;7.45;2.60;;;;;;;;;;5061969;28;20013;-77
2022/06/19 02:14:52;;;;;;;4.82;2.45;;;;;;;;;;5069533;28;20491;-78
2022/06/19 02:17:24;;;;;;;3.88;2.47;;;;;;;;;;5084754;28;20041;-78
2022/06/19 02:19:50;;;;;;;7.22;2.85;;;;;;;;;;5074047;28;20024;-78
2022/06/19 02:22:17;;;;;;;6.15;2.65;;;;;;;;;;5062211;28;20027;-78
2022/06/19 02:24:43;;;;;;;6.28;3.03;;;;;;;;;;5064062;28;20016;-78
2022/06/19 02:27:10;;;;;;;14.85;3.30;;;;;;;;;;5063704;28;20249;-78
2022/06/19 02:29:37;;;;;;;5.13;2.47;;;;;;;;;;5062718;28;20031;-78
2022/06/19 02:32:03;;;;;;;6.80;2.70;;;;;;;;;;5060314;28;20021;-77
2022/06/19 02:34:38;;;;;;;6.88;2.45;;;;;;;;;;5068657;28;20029;-77
2022/06/19 02:37:05;;;;;;;7.88;3.25;;;;;;;;;;5065830;28;20028;-77
2022/06/19 02:39:40;;;;;;;6.72;2.50;;;;;;;;;;5064456;28;20028;-78
2022/06/19 02:42:10;;;;;;;7.32;2.53;;;;;;;;;;5063454;28;20474;-78
2022/06/19 02:44:41;;;;;;;8.50;3.10;;;;;;;;;;5057528;28;20478;-77
2022/06/19 02:47:07;;;;;;;7.22;3.13;;;;;;;;;;5069216;28;20029;-78
2022/06/19 02:49:34;;;;;;;8.90;2.80;;;;;;;;;;5064133;28;20051;-77
2022/06/19 02:52:00;;;;;;;8.13;2.95;;;;;;;;;;5064993;28;20048;-77
2022/06/19 02:54:27;;;;;;;8.90;3.53;;;;;;;;;;5069818;28;20020;-78
2022/06/19 02:56:53;;;;;;;9.98;2.97;;;;;;;;;;5062200;28;20020;-77
2022/06/19 02:59:19;;;;;;;5.78;2.55;;;;;;;;;;5066068;28;20025;-77
2022/06/19 03:01:45;;;;;;;5.30;3.03;;;;;;;;;;5067788;28;20561;-78
2022/06/19 03:04:15;;;;;;;10.60;3.33;;;;;;;;;;5065362;28;20033;-77
2022/06/19 03:06:41;;;;;;;6.18;2.45;;;;;;;;;;5066093;28;20020;-77
2022/06/19 03:09:07;;;;;;;8.93;2.83;;;;;;;;;;5059620;28;20037;-78
2022/06/19 03:11:33;;;;;;;5.60;2.92;;;;;;;;;;5070941;28;20112;-78
2022/06/19 03:13:59;;;;;;;8.25;2.65;;;;;;;;;;5061177;28;20025;-77
2022/06/19 03:16:26;;;;;;;6.47;3.10;;;;;;;;;;5062358;28;20024;-78
2022/06/19 03:18:52;;;;;;;6.20;2.78;;;;;;;;;;5067072;28;20033;-77
2022/06/19 03:21:19;;;;;;;4.35;2.55;;;;;;;;;;5066403;28;20057;-78
2022/06/19 03:23:45;;;;;;;8.48;3.05;;;;;;;;;;5062420;28;20021;-78
2022/06/19 03:26:11;;;;;;;6.80;2.60;;;;;;;;;;5060565;28;20520;-77
2022/06/19 03:28:37;;;;;;;8.43;2.88;;;;;;;;;;5070781;28;20514;-78
2022/06/19 03:31:03;;;;;;;8.50;2.72;;;;;;;;;;5066003;28;20074;-78
2022/06/19 03:33:29;;;;;;;8.80;2.70;;;;;;;;;;5064351;28;20032;-77
2022/06/19 03:35:55;;;;;;;5.18;2.55;;;;;;;;;;5061397;28;20021;-79
2022/06/19 03:38:22;;;;;;;5.80;2.60;;;;;;;;;;5067649;28;20088;-77
2022/06/19 03:40:49;;;;;;;9.00;2.60;;;;;;;;;;5062963;28;20184;-77
2022/06/19 03:43:15;;;;;;;4.68;3.42;;;;;;;;;;5067281;28;20494;-78
2022/06/19 03:45:41;;;;;;;7.65;2.78;;;;;;;;;;5063808;28;20025;-78
2022/06/19 03:48:09;;;;;;;11.90;3.83;;;;;;;;;;5064038;28;20352;-78
2022/06/19 03:50:35;;;;;;;8.43;3.00;;;;;;;;;;5075326;28;20024;-78
2022/06/19 03:53:01;;;;;;;14.32;3.47;;;;;;;;;;5075544;28;20032;-79
2022/06/19 03:55:27;;;;;;;11.55;3.47;;;;;;;;;;5066535;28;20081;-78
2022/06/19 03:57:53;;;;;;;8.80;2.70;;;;;;;;;;5063443;28;20609;-78
2022/06/19 04:00:19;;;;;;;6.15;3.10;;;;;;;;;;5068083;28;20020;-78
2022/06/19 04:02:45;;;;;;;8.90;3.83;;;;;;;;;;5065298;28;20019;-79
2022/06/19 04:05:12;;;;;;;9.70;3.60;;;;;;;;;;5065361;28;20084;-78
2022/06/19 04:07:43;;;;;;;6.25;3.35;;;;;;;;;;5066883;28;20066;-78
2022/06/19 04:10:09;;;;;;;9.57;3.20;;;;;;;;;;5062484;28;20024;-78
2022/06/19 04:12:35;;;;;;;7.13;3.50;;;;;;;;;;5067729;28;20070;-79
2022/06/19 04:15:01;;;;;;;12.13;4.10;;;;;;;;;;5064622;28;20021;-78
2022/06/19 04:17:27;;;;;;;12.23;3.05;;;;;;;;;;5064667;28;20078;-78
2022/06/19 04:19:53;;;;;;;10.50;3.63;;;;;;;;;;5071461;28;20505;-78
2022/06/19 04:22:19;;;;;;;8.80;2.90;;;;;;;;;;5066001;28;20052;-79
2022/06/19 04:24:45;;;;;;;7.85;2.70;;;;;;;;;;5065007;28;20013;-78
2022/06/19 04:27:11;;;;;;;6.45;2.67;;;;;;;;;;5065088;28;20117;-78
2022/06/19 04:29:38;;;;;;;9.30;3.85;;;;;;;;;;5063430;28;20027;-78
2022/06/19 04:32:04;;;;;;;6.20;2.53;;;;;;;;;;5073225;28;20425;-79
2022/06/19 04:34:30;;;;;;;7.68;3.13;;;;;;;;;;5072045;28;20025;-78
2022/06/19 04:36:56;;;;;;;9.77;2.83;;;;;;;;;;5062174;28;20055;-78
2022/06/19 04:39:22;;;;;;;5.90;3.53;;;;;;;;;;5067661;28;20031;-78
2022/06/19 04:41:48;;;;;;;10.65;3.05;;;;;;;;;;5058637;28;20025;-79
2022/06/19 04:44:16;;;;;;;8.45;3.15;;;;;;;;;;5057578;28;20044;-79
2022/06/19 04:46:42;;;;;;;9.60;3.38;;;;;;;;;;5055272;28;20532;-78
2022/06/19 04:49:09;;;;;;;9.60;3.38;;;;;;;;;;5071113;28;20097;-78
2022/06/19 04:51:35;;;;;;;9.65;3.20;;;;;;;;;;5067961;28;20017;-78
2022/06/19 04:54:01;;;;;;;11.70;3.35;;;;;;;;;;5067718;28;20605;-78
2022/06/19 04:56:27;;;;;;;6.50;2.92;;;;;;;;;;5060206;28;20360;-78
2022/06/19 04:58:53;;;;;;;6.80;2.97;;;;;;;;;;5060179;28;20021;-77
2022/06/19 05:01:24;;;;;;;10.00;3.38;;;;;;;;;;5069220;28;20029;-77
2022/06/19 05:03:51;;;;;;;5.55;2.80;;;;;;;;;;5070092;28;20051;-77
2022/06/19 05:06:17;;;;;;;10.27;3.03;;;;;;;;;;5062809;28;20023;-78
2022/06/19 05:08:44;;;;;;;12.38;3.30;;;;;;;;;;5063651;28;20568;-78
2022/06/19 05:11:10;;;;;;;8.20;3.05;;;;;;;;;;5062891;28;20035;-77
2022/06/19 05:13:37;;;;;;;9.18;3.20;;;;;;;;;;5069717;28;20033;-77
2022/06/19 05:16:05;;;;;;;10.60;3.55;;;;;;;;;;5062139;28;20367;-78
2022/06/19 05:18:31;;;;;;;9.13;4.07;;;;;;;;;;5074054;28;20044;-78
2022/06/19 05:21:01;;;;;;;9.23;3.00;;;;;;;;;;5064457;28;20024;-78
2022/06/19 05:23:27;;;;;;;7.93;3.88;;;;;;;;;;5065616;28;20425;-78
2022/06/19 05:25:58;;;;;;;8.48;3.35;;;;;;;;;;5066543;28;20017;-77
2022/06/19 05:28:24;;;;;;;6.88;3.10;;;;;;;;;;5065492;28;20530;-78
2022/06/19 05:30:50;;;;;;;9.10;2.95;;;;;;;;;;5069652;28;20051;-78
2022/06/19 05:33:17;;;;;;;10.32;3.75;;;;;;;;;;5070620;28;20027;-78
2022/06/19 05:35:43;;;;;;;6.82;3.05;;;;;;;;;;5070223;28;20387;-77
2022/06/19 05:38:12;;;;;;;7.85;3.08;;;;;;;;;;5071556;28;20033;-78
2022/06/19 05:40:38;;;;;;;12.55;3.80;;;;;;;;;;5065232;28;20052;-77
2022/06/19 05:43:05;;;;;;;9.23;3.22;;;;;;;;;;5065311;28;20021;-76
2022/06/19 05:45:31;;;;;;;8.48;3.25;;;;;;;;;;5069691;28;20032;-78
2022/06/19 05:47:57;;;;;;;10.68;3.25;;;;;;;;;;5073936;28;20017;-78
2022/06/19 05:50:23;;;;;;;9.93;3.25;;;;;;;;;;5065202;28;20036;-78
2022/06/19 05:52:49;;;;;;;13.35;4.10;;;;;;;;;;5071543;28;20112;-78
2022/06/19 05:55:15;;;;;;;11.07;3.92;;;;;;;;;;5070882;28;20029;-78
2022/06/19 05:57:41;;;;;;;12.65;3.05;;;;;;;;;;5073647;28;20482;-77
2022/06/19 06:00:10;;;;;;;11.05;3.33;;;;;;;;;;5062938;28;20025;-78
2022/06/19 06:02:37;;;;;;;8.02;3.50;;;;;;;;;;5063778;28;20100;-78
2022/06/19 06:05:04;;;;;;;11.18;3.90;;;;;;;;;;5066014;28;20025;-78
2022/06/19 06:07:30;;;;;;;9.38;4.25;;;;;;;;;;5073130;28;20020;-78
2022/06/19 06:09:56;;;;;;;10.68;4.10;;;;;;;;;;5072309;28;20028;-78
2022/06/19 06:12:22;;;;;;;9.95;3.58;;;;;;;;;;5067105;28;20036;-78
2022/06/19 06:14:49;;;;;;;12.23;3.92;;;;;;;;;;5082025;28;20037;-78
2022/06/19 06:17:15;;;;;;;10.48;4.10;;;;;;;;;;5070180;28;20550;-78
2022/06/19 06:19:41;;;;;;;11.85;3.30;;;;;;;;;;5078926;28;20178;-79
2022/06/19 06:22:07;;;;;;;15.75;4.63;;;;;;;;;;5067605;28;20398;-78
2022/06/19 06:24:34;;;;;;;11.40;3.45;;;;;;;;;;5070109;28;20025;-78
2022/06/19 06:27:03;;;;;;;12.32;3.45;;;;;;;;;;5071429;28;20013;-78
2022/06/19 06:29:29;;;;;;;11.43;3.05;;;;;;;;;;5072719;28;20154;-79
2022/06/19 06:31:58;;;;;;;11.35;4.03;;;;;;;;;;5065938;28;20050;-78
2022/06/19 06:34:24;;;;;;;11.25;3.72;;;;;;;;;;5061185;28;20071;-77
2022/06/19 06:36:50;;;;;;;8.15;3.05;;;;;;;;;;5073984;28;20023;-78
2022/06/19 06:39:16;;;;;;;8.32;3.40;;;;;;;;;;5065646;28;20033;-78
2022/06/19 06:41:42;;;;;;;9.25;3.08;;;;;;;;;;5071594;28;20086;-78
2022/06/19 06:44:13;;;;;;;13.15;4.50;;;;;;;;;;5062789;28;20029;-78
2022/06/19 06:46:39;;;;;;;9.18;3.30;;;;;;;;;;5069855;28;20052;-78
2022/06/19 06:49:05;;;;;;;7.75;2.95;;;;;;;;;;5066748;28;20025;-78
2022/06/19 06:51:31;;;;;;;14.65;3.38;;;;;;;;;;5070876;28;20020;-78
2022/06/19 06:53:58;;;;;;;9.93;3.28;;;;;;;;;;5073317;28;20036;-77
2022/06/19 06:56:35;;;;;;;11.82;3.30;;;;;;;;;;5066506;28;20044;-78
2022/06/19 06:59:01;;;;;;;8.40;3.30;;;;;;;;;;5063108;28;20120;-78
2022/06/19 07:01:29;;;;;;;9.57;3.22;;;;;;;;;;5063590;28;20082;-77
2022/06/19 07:03:55;;;;;;;8.25;3.08;;;;;;;;;;5059389;28;20009;-77
2022/06/19 07:06:22;;;;;;;8.25;3.05;;;;;;;;;;5060713;28;20025;-78
2022/06/19 07:08:48;;;;;;;12.70;3.45;;;;;;;;;;5066061;28;20032;-78
2022/06/19 07:11:17;;;;;;;11.38;3.55;;;;;;;;;;5068612;28;20036;-80
2022/06/19 07:13:43;;;;;;;10.38;3.63;;;;;;;;;;5066855;28;20120;-78
2022/06/19 07:16:09;;;;;;;10.45;3.10;;;;;;;;;;5065007;28;20021;-78
2022/06/19 07:18:36;;;;;;;7.97;3.22;;;;;;;;;;5063816;28;20050;-79
2022/06/19 07:21:02;;;;;;;16.20;4.47;;;;;;;;;;5067142;28;20024;-78
2022/06/19 07:23:28;;;;;;;11.52;4.10;;;;;;;;;;5060457;28;20028;-78
2022/06/19 07:25:54;;;;;;;7.70;2.83;;;;;;;;;;5067362;28;20077;-77
2022/06/19 07:28:20;;;;;;;13.55;3.00;;;;;;;;;;5065752;28;20049;-77
2022/06/19 07:30:47;;;;;;;10.00;3.80;;;;;;;;;;5071904;28;20047;-78
2022/06/19 07:33:13;;;;;;;7.05;2.90;;;;;;;;;;5070631;28;20036;-78
2022/06/19 07:35:39;;;;;;;10.90;3.47;;;;;;;;;;5066627;28;20029;-79
2022/06/19 07:38:06;;;;;;;9.57;3.40;;;;;;;;;;5067384;28;20024;-79
2022/06/19 07:40:32;;;;;;;13.88;3.30;;;;;;;;;;5068361;28;20041;-79
2022/06/19 07:42:58;;;;;;;11.82;3.58;;;;;;;;;;5075563;28;20023;-78
2022/06/19 07:45:24;;;;;;;9.73;3.60;;;;;;;;;;5072458;28;20029;-79
2022/06/19 07:50:34;;;;;;;10.52;4.13;;;;;;;;;;5066441;28;20036;-78
2022/06/19 07:53:01;;;;;;;13.20;3.92;;;;;;;;;;5066794;28;20486;-78
2022/06/19 07:55:28;;;;;;;14.30;4.25;;;;;;;;;;5074363;28;20051;-79
2022/06/19 07:57:54;;;;;;;14.80;3.65;;;;;;;;;;5074421;28;20032;-79
2022/06/19 08:00:22;;;;;;;10.07;3.78;;;;;;;;;;5074498;28;20029;-78
2022/06/19 08:02:49;;;;;;;14.70;3.78;;;;;;;;;;5068552;28;20052;-78
2022/06/19 08:05:16;;;;;;;13.07;3.30;;;;;;;;;;5066000;28;20447;-78
2022/06/19 08:07:42;;;;;;;14.27;4.50;;;;;;;;;;5074199;28;20375;-78
2022/06/19 08:10:10;;;;;;;10.63;3.05;;;;;;;;;;5073887;28;20048;-77
2022/06/19 08:12:36;;;;;;;11.18;3.45;;;;;;;;;;5069283;28;20486;-78
2022/06/19 08:15:02;;;;;;;6.75;3.38;;;;;;;;;;5066089;28;20497;-77
2022/06/19 08:17:28;;;;;;;8.35;2.85;;;;;;;;;;5078792;28;20076;-78
2022/06/19 08:19:54;;;;;;;13.18;3.22;;;;;;;;;;5069275;28;20424;-78
2022/06/19 08:22:20;;;;;;;12.00;3.42;;;;;;;;;;5063300;28;20028;-78
2022/06/19 08:24:46;;;;;;;10.75;3.20;;;;;;;;;;5085226;28;20028;-79
2022/06/19 08:27:12;;;;;;;6.95;3.05;;;;;;;;;;5062850;28;20166;-76
2022/06/19 08:29:38;;;;;;;11.73;3.20;;;;;;;;;;5054902;28;20031;-77
2022/06/19 08:32:05;;;;;;;7.82;2.67;;;;;;;;;;5060926;28;20021;-77
2022/06/19 08:34:31;;;;;;;8.80;3.78;;;;;;;;;;5060402;28;20587;-77
2022/06/19 08:36:57;;;;;;;12.55;3.50;;;;;;;;;;5073744;28;20025;-77
2022/06/19 08:39:24;;;;;;;9.60;3.20;;;;;;;;;;5062016;28;20016;-77
2022/06/19 08:41:59;;;;;;;9.35;3.40;;;;;;;;;;5058313;28;20024;-77
2022/06/19 08:44:25;;;;;;;6.93;3.15;;;;;;;;;;5060449;28;20206;-77
2022/06/19 08:46:51;;;;;;;10.63;3.30;;;;;;;;;;5061831;28;20032;-78
2022/06/19 08:49:17;;;;;;;10.20;3.33;;;;;;;;;;5060282;28;20055;-77
2022/06/19 08:51:43;;;;;;;9.52;2.75;;;;;;;;;;5059033;28;20252;-77
2022/06/19 08:54:09;;;;;;;6.03;3.05;;;;;;;;;;5061561;28;20490;-77
2022/06/19 08:56:55;;;;;;;7.95;3.33;;;;;;;;;;5055436;28;20028;-76
2022/06/19 08:59:34;;;;;;;11.68;4.28;;;;;;;;;;5055671;28;20456;-77
2022/06/19 09:02:15;;;;;;;12.13;3.90;;;;;;;;;;5060267;28;20029;-77
2022/06/19 09:07:31;;;;;;;12.63;3.13;;;;;;;;;;5062006;28;20063;-76
2022/06/19 09:10:10;;;;;;;14.07;3.20;;;;;;;;;;5059473;28;20401;-77
2022/06/19 09:12:55;;;;;;;8.13;3.08;;;;;;;;;;5059809;28;20028;-76
2022/06/19 09:15:29;;;;;;;15.90;3.45;;;;;;;;;;5060407;28;20040;-77
2022/06/19 09:18:06;;;;;;;8.68;3.47;;;;;;;;;;5055128;28;20184;-77
2022/06/19 09:20:41;;;;;;;12.63;3.67;;;;;;;;;;5056062;28;20033;-78
2022/06/19 09:23:18;;;;;;;15.30;3.65;;;;;;;;;;5059203;28;20091;-77
2022/06/19 09:25:50;;;;;;;10.13;3.35;;;;;;;;;;5060397;28;20073;-77
2022/06/19 09:28:38;;;;;;;10.30;3.78;;;;;;;;;;5062229;28;20116;-77
2022/06/19 09:31:07;;;;;;;13.38;2.90;;;;;;;;;;5062397;28;20078;-78
2022/06/19 09:33:39;;;;;;;10.85;3.45;;;;;;;;;;5061705;28;20039;-77
2022/06/19 09:36:09;;;;;;;9.10;2.70;;;;;;;;;;5076359;28;20047;-78
2022/06/19 09:38:39;;;;;;;11.25;3.10;;;;;;;;;;5061620;28;20445;-77
2022/06/19 09:41:08;;;;;;;8.23;3.30;;;;;;;;;;5057097;28;20831;-77
2022/06/19 09:43:40;;;;;;;11.30;3.65;;;;;;;;;;5062136;28;20032;-76
2022/06/19 09:46:11;;;;;;;9.68;3.72;;;;;;;;;;5061453;28;20173;-77
2022/06/19 09:48:49;;;;;;;7.20;2.78;;;;;;;;;;5061147;28;20656;-76
2022/06/19 09:51:18;;;;;;;9.13;2.75;;;;;;;;;;5057081;28;20029;-76
2022/06/19 09:53:54;;;;;;;9.57;2.92;;;;;;;;;;5058719;28;20028;-76
2022/06/19 09:56:24;;;;;;;5.78;2.58;;;;;;;;;;5058643;28;20440;-77
2022/06/19 09:58:55;;;;;;;9.90;2.80;;;;;;;;;;5060656;28;20033;-76
2022/06/19 10:01:23;;;;;;;10.63;3.25;;;;;;;;;;5057188;28;20029;-77
2022/06/19 10:04:15;;;;;;;9.40;3.28;;;;;;;;;;5063207;28;20025;-76
2022/06/19 10:06:44;;;;;;;8.13;2.92;;;;;;;;;;5058414;28;20083;-76
2022/06/19 10:09:23;;;;;;;8.73;3.85;;;;;;;;;;5063002;28;20020;-77
2022/06/19 10:11:53;;;;;;;12.95;3.67;;;;;;;;;;5059382;28;20033;-77
2022/06/19 10:14:32;;;;;;;11.23;2.63;;;;;;;;;;5062592;28;20031;-76
2022/06/19 10:17:22;;;;;;;5.03;2.70;;;;;;;;;;5064744;28;20028;-76
2022/06/19 10:19:50;;;;;;;14.93;3.17;;;;;;;;;;5061023;28;20036;-76
2022/06/19 10:22:35;;;;;;;8.30;2.70;;;;;;;;;;5063062;28;20398;-76
2022/06/19 10:25:25;;;;;;;10.70;3.03;;;;;;;;;;5062011;28;20101;-76
2022/06/19 10:28:03;;;;;;;7.80;3.58;;;;;;;;;;5064514;28;20566;-76
2022/06/19 10:30:32;;;;;;;9.10;3.05;;;;;;;;;;5065502;28;20033;-76
2022/06/19 10:33:06;;;;;;;13.43;4.38;;;;;;;;;;5062638;28;20059;-78
2022/06/19 10:35:41;;;;;;;8.25;3.17;;;;;;;;;;5063436;28;20091;-78
2022/06/19 10:38:16;;;;;;;9.98;3.08;;;;;;;;;;5066438;28;20046;-77
2022/06/19 10:40:42;;;;;;;9.07;2.70;;;;;;;;;;5063922;28;20024;-77
2022/06/19 10:43:11;;;;;;;6.60;2.25;;;;;;;;;;5063733;28;20026;-76
2022/06/19 10:45:57;;;;;;;6.25;2.08;;;;;;;;;;5061241;28;20078;-77
2022/06/19 10:48:29;;;;;;;3.42;1.80;;;;;;;;;;5065400;28;20103;-78
2022/06/19 10:51:11;;;;;;;4.97;2.50;;;;;;;;;;5065161;28;20119;-77
2022/06/19 10:53:55;;;;;;;5.35;2.30;;;;;;;;;;5065963;28;20028;-77
2022/06/19 10:56:37;;;;;;;6.82;2.10;;;;;;;;;;5062990;28;20532;-78
2022/06/19 10:59:04;;;;;;;4.45;3.17;;;;;;;;;;5067094;28;20873;-77
2022/06/19 11:04:22;;;;;;;5.75;2.75;;;;;;;;;;5065039;28;20034;-78
2022/06/19 11:07:07;;;;;;;4.88;1.90;;;;;;;;;;5061784;28;20103;-77
2022/06/19 11:09:54;;;;;;;3.37;1.80;;;;;;;;;;5063268;28;20206;-77
2022/06/19 11:12:37;;;;;;;4.30;2.40;;;;;;;;;;5063817;28;20021;-76
2022/06/19 11:15:05;;;;;;;3.90;2.05;;;;;;;;;;5062752;28;20058;-76
2022/06/19 11:17:33;;;;;;;6.45;2.33;;;;;;;;;;5062440;28;20094;-76
2022/06/19 11:20:18;;;;;;;4.15;2.00;;;;;;;;;;5065000;28;20062;-76
2022/06/19 11:22:48;;;;;;;6.03;2.10;;;;;;;;;;5063580;28;20051;-76
2022/06/19 11:25:21;;;;;;;3.08;1.65;;;;;;;;;;5063332;28;20037;-77
2022/06/19 11:28:06;;;;;;;6.63;1.90;;;;;;;;;;5062849;28;20035;-78
2022/06/19 11:30:36;;;;;;;5.07;1.88;;;;;;;;;;5064226;28;20115;-78
2022/06/19 11:33:04;;;;;;;3.40;2.00;;;;;;;;;;5064788;28;20029;-78
2022/06/19 11:35:38;;;;;;;7.35;2.63;;;;;;;;;;5065222;28;20085;-77
2022/06/19 11:38:05;;;;;;;5.38;2.20;;;;;;;;;;5064447;28;20082;-77
2022/06/19 11:40:33;;;;;;;5.60;2.50;;;;;;;;;;5059667;28;20537;-75
2022/06/19 11:43:00;;;;;;;8.32;2.20;;;;;;;;;;5066838;28;20487;-77
2022/06/19 11:45:27;;;;;;;5.60;2.15;;;;;;;;;;5065159;28;20024;-77
2022/06/19 11:47:56;;;;;;;4.80;2.63;;;;;;;;;;5060787;28;20028;-78
2022/06/19 11:50:22;;;;;;;1.58;1.48;;;;;;;;;;5061225;28;21618;-77
2022/06/19 11:53:00;;;;;;;4.88;1.92;;;;;;;;;;5062522;28;20538;-77
2022/06/19 11:55:27;;;;;;;4.55;2.35;;;;;;;;;;5061052;28;20033;-77
2022/06/19 11:57:56;;;;;;;3.75;2.03;;;;;;;;;;5062815;28;20524;-78
2022/06/19 12:00:27;;;;;;;3.72;2.97;;;;;;;;;;5061448;28;20035;-77
2022/06/19 12:02:54;;;;;;;2.90;2.25;;;;;;;;;;5062812;28;20086;-75
2022/06/19 12:05:27;;;;;;;5.45;2.15;;;;;;;;;;5060602;28;20036;-76
2022/06/19 12:07:53;;;;;;;8.07;2.47;;;;;;;;;;5062588;28;20017;-77
2022/06/19 12:10:21;;;;;;;11.45;4.35;;;;;;;;;;5061798;28;20043;-78
2022/06/19 12:13:00;;;;;;;4.65;2.35;;;;;;;;;;5064371;28;20153;-78
2022/06/19 12:15:31;;;;;;;4.57;2.58;;;;;;;;;;5060415;28;20185;-78
2022/06/19 12:17:58;;;;;;;6.43;2.80;;;;;;;;;;5063361;28;20059;-78
2022/06/19 12:20:26;;;;;;;3.03;2.15;;;;;;;;;;5064119;28;20105;-75
2022/06/19 12:23:07;;;;;;;5.03;2.63;;;;;;;;;;5061730;28;20129;-76
2022/06/19 12:25:50;;;;;;;4.05;2.67;;;;;;;;;;5058256;28;20108;-75
2022/06/19 12:28:23;;;;;;;6.38;2.83;;;;;;;;;;5060263;28;20539;-75
2022/06/19 12:30:58;;;;;;;6.00;2.17;;;;;;;;;;5061678;28;20039;-76
2022/06/19 12:33:40;;;;;;;6.70;2.03;;;;;;;;;;5056844;28;20113;-77
2022/06/19 12:36:08;;;;;;;6.68;2.22;;;;;;;;;;5060521;28;20032;-76
2022/06/19 12:38:34;;;;;;;5.38;2.00;;;;;;;;;;5060284;28;20048;-78
2022/06/19 12:41:26;;;;;;;4.90;2.13;;;;;;;;;;5062549;28;20024;-76
2022/06/19 12:44:10;;;;;;;4.22;2.13;;;;;;;;;;5058429;28;20063;-76
2022/06/19 12:46:41;;;;;;;4.93;2.00;;;;;;;;;;5060415;28;20027;-76
2022/06/19 12:49:30;;;;;;;3.15;1.77;;;;;;;;;;5059197;28;20039;-76
2022/06/19 12:52:02;;;;;;;3.28;1.65;;;;;;;;;;5060086;28;20479;-76
2022/06/19 12:54:40;;;;;;;1.90;1.52;;;;;;;;;;5062146;28;20507;-75
2022/06/19 12:57:18;;;;;;;2.08;1.80;;;;;;;;;;5056949;28;20032;-75
2022/06/19 12:59:47;;;;;;;5.70;2.55;;;;;;;;;;5061099;28;20032;-76
2022/06/19 13:02:21;;;;;;;5.55;2.03;;;;;;;;;;5059855;28;20462;-77
2022/06/19 13:05:06;;;;;;;3.90;2.00;;;;;;;;;;5059364;28;20418;-79
2022/06/19 13:07:32;;;;;;;3.07;2.27;;;;;;;;;;5062487;28;20278;-73
2022/06/19 13:10:17;;;;;;;4.00;2.20;;;;;;;;;;5057172;28;20086;-73
2022/06/19 13:12:43;;;;;;;2.25;1.98;;;;;;;;;;5061344;28;20024;-75
2022/06/19 13:15:19;;;;;;;2.95;2.10;;;;;;;;;;5060947;28;20020;-76
2022/06/19 13:17:45;;;;;;;3.25;2.10;;;;;;;;;;5060930;28;20083;-75
2022/06/19 13:20:27;;;;;;;3.55;1.70;;;;;;;;;;5060158;28;20081;-77
2022/06/19 13:23:02;;;;;;;2.83;1.60;;;;;;;;;;5056808;28;20954;-77
2022/06/19 13:25:32;;;;;;;5.18;1.88;;;;;;;;;;5062295;28;20122;-78
2022/06/19 13:28:04;;;;;;;3.47;1.90;;;;;;;;;;5060606;28;20067;-76
2022/06/19 13:30:53;;;;;;;2.47;1.60;;;;;;;;;;5062895;28;20079;-77
2022/06/19 13:33:28;;;;;;;2.15;1.90;;;;;;;;;;5059967;28;20487;-76
2022/06/19 13:36:03;;;;;;;2.55;1.83;;;;;;;;;;5062164;28;20036;-76
2022/06/19 13:38:34;;;;;;;3.47;1.70;;;;;;;;;;5059215;28;20024;-76
2022/06/19 13:41:03;;;;;;;2.33;2.05;;;;;;;;;;5063156;28;20068;-75
2022/06/19 13:43:34;;;;;;;1.50;1.35;;;;;;;;;;5059245;28;20517;-75
2022/06/19 13:46:23;;;;;;;4.22;1.88;;;;;;;;;;5061026;28;20036;-76
2022/06/19 13:48:58;;;;;;;3.97;1.80;;;;;;;;;;5060770;28;20029;-77
2022/06/19 13:51:26;;;;;;;2.85;1.83;;;;;;;;;;5063567;28;20056;-76
2022/06/19 13:53:59;;;;;;;4.15;2.15;;;;;;;;;;5066639;28;20024;-77
2022/06/19 13:56:43;;;;;;;2.97;1.90;;;;;;;;;;5060654;28;20043;-76
2022/06/19 13:59:12;;;;;;;2.17;1.98;;;;;;;;;;5062863;28;20104;-76
2022/06/19 14:01:53;;;;;;;3.63;1.85;;;;;;;;;;5062466;28;20557;-75
2022/06/19 14:04:47;;;;;;;5.40;2.30;;;;;;;;;;5064026;28;20033;-77
2022/06/19 14:07:32;;;;;;;3.15;1.80;;;;;;;;;;5062515;28;20035;-76
2022/06/19 14:10:03;;;;;;;4.15;2.30;;;;;;;;;;5077692;28;20059;-74
2022/06/19 14:12:55;;;;;;;3.63;1.80;;;;;;;;;;5061155;28;20636;-74
2022/06/19 14:15:28;;;;;;;7.15;1.92;;;;;;;;;;5044916;28;20391;-75
2022/06/19 14:18:07;;;;;;;2.70;1.92;;;;;;;;;;5061064;28;20047;-74
2022/06/19 14:20:51;;;;;;;3.88;2.10;;;;;;;;;;5062706;28;20043;-75
2022/06/19 14:23:23;;;;;;;2.92;1.90;;;;;;;;;;5065498;28;20025;-75
2022/06/19 14:25:49;;;;;;;3.72;1.90;;;;;;;;;;5063519;28;20501;-74
2022/06/19 14:28:25;;;;;;;3.17;1.92;;;;;;;;;;5061744;28;20036;-74
2022/06/19 14:30:54;;;;;;;4.15;2.00;;;;;;;;;;5065373;28;20024;-75
2022/06/19 14:33:42;;;;;;;5.40;1.73;;;;;;;;;;5063310;28;20403;-76
2022/06/19 14:36:20;;;;;;;4.32;1.85;;;;;;;;;;5063073;28;20029;-76
2022/06/19 14:38:48;;;;;;;6.05;2.03;;;;;;;;;;5065457;28;20024;-75
2022/06/19 14:41:26;;;;;;;10.05;2.35;;;;;;;;;;5061139;28;20086;-77
2022/06/19 14:43:55;;;;;;;3.95;2.20;;;;;;;;;;5063058;28;20027;-76
2022/06/19 14:46:31;;;;;;;5.05;2.10;;;;;;;;;;5062245;28;20044;-76
2022/06/19 14:49:17;;;;;;;4.05;2.00;;;;;;;;;;5062496;28;20025;-75
2022/06/19 14:51:48;;;;;;;2.97;1.80;;;;;;;;;;5063239;28;20039;-77
2022/06/19 14:54:18;;;;;;;5.43;2.00;;;;;;;;;;5062439;28;20418;-76
2022/06/19 14:56:55;;;;;;;3.72;2.00;;;;;;;;;;5063927;28;20052;-76
2022/06/19 14:59:25;;;;;;;3.90;2.33;;;;;;;;;;5061440;28;20036;-74
2022/06/19 15:01:52;;;;;;;3.75;2.20;;;;;;;;;;5063559;28;20028;-75
2022/06/19 15:04:21;;;;;;;5.00;2.40;;;;;;;;;;5059795;28;20029;-77
2022/06/19 15:07:11;;;;;;;5.93;2.50;;;;;;;;;;5080795;28;20025;-76
2022/06/19 15:09:49;;;;;;;3.70;1.98;;;;;;;;;;5063849;28;20025;-77